Time,TemperatureF,DewpointF,PressureIn,WindDirection,WindDirectionDegrees,WindSpeedMPH,WindSpeedGustMPH,Humidity,HourlyPrecipIn,Conditions,Clouds,dailyrainin,SolarRadiationWatts/m^2,SoftwareType,DateUTC
2013-05-27 00:01:00,53.0,51.0,-100.00,South,187,8.0,18.0,94,0.00,,,0.07,1.000000,,2013-05-27 07:01:00,
2013-05-27 00:21:00,52.0,51.0,-100.00,South,178,6.0,17.0,97,0.00,,,0.04,2.000000,,2013-05-27 07:21:00,
2013-05-27 00:32:00,52.0,51.0,-100.00,South,178,6.0,17.0,97,0.00,,,0.04,2.000000,,2013-05-27 07:32:00,
2013-05-27 00:42:00,52.0,51.0,-100.00,South,178,6.0,17.0,97,0.00,,,0.04,2.000000,,2013-05-27 07:42:00,
2013-05-27 00:52:00,52.0,51.0,-100.00,South,178,6.0,17.0,97,0.00,,,0.04,2.000000,,2013-05-27 07:52:00,
2013-05-27 01:02:00,52.0,51.0,-100.00,South,178,6.0,17.0,97,0.00,,,0.04,2.000000,,2013-05-27 08:02:00,
2013-05-27 01:33:00,51.0,51.0,-100.00,SSE,160,2.0,12.0,100,0.01,,,0.04,2.000000,,2013-05-27 08:33:00,
2013-05-27 01:42:00,51.0,51.0,-100.00,SSE,160,2.0,12.0,100,0.01,,,0.04,2.000000,,2013-05-27 08:42:00,
2013-05-27 01:52:00,51.0,51.0,-100.00,SSE,160,2.0,12.0,100,0.01,,,0.04,2.000000,,2013-05-27 08:52:00,
2013-05-27 02:02:00,51.0,51.0,-100.00,SSE,160,2.0,12.0,100,0.01,,,0.04,2.000000,,2013-05-27 09:02:00,
2013-05-27 02:33:00,52.0,52.0,-100.00,SSE,166,3.0,7.0,100,0.08,,,0.12,2.000000,,2013-05-27 09:33:00,
2013-05-27 02:42:00,52.0,52.0,-100.00,SSE,166,3.0,7.0,100,0.08,,,0.12,2.000000,,2013-05-27 09:42:00,
2013-05-27 02:53:00,52.0,52.0,-100.00,SSE,166,3.0,7.0,100,0.08,,,0.12,2.000000,,2013-05-27 09:53:00,
2013-05-27 03:02:00,52.0,52.0,-100.00,SSE,166,3.0,7.0,100,0.08,,,0.12,2.000000,,2013-05-27 10:02:00,
2013-05-27 03:32:00,52.0,52.0,-100.00,SSE,166,6.0,9.0,100,0.08,,,0.19,2.000000,,2013-05-27 10:32:00,
2013-05-27 03:42:00,52.0,52.0,-100.00,SSE,166,6.0,9.0,100,0.08,,,0.19,2.000000,,2013-05-27 10:42:00,
2013-05-27 03:52:00,52.0,52.0,-100.00,SSE,166,6.0,9.0,100,0.08,,,0.19,2.000000,,2013-05-27 10:52:00,
2013-05-27 04:02:00,52.0,52.0,-100.00,SSE,166,6.0,9.0,100,0.08,,,0.19,2.000000,,2013-05-27 11:02:00,
2013-05-27 04:32:00,51.0,51.0,-100.00,SSE,168,6.0,11.0,100,0.07,,,0.25,2.000000,,2013-05-27 11:32:00,
2013-05-27 04:42:00,51.0,51.0,-100.00,SSE,168,6.0,11.0,100,0.07,,,0.25,2.000000,,2013-05-27 11:42:00,
2013-05-27 04:52:00,51.0,51.0,-100.00,SSE,168,6.0,11.0,100,0.07,,,0.25,2.000000,,2013-05-27 11:52:00,
2013-05-27 05:01:00,51.0,51.0,-100.00,SSE,168,6.0,11.0,100,0.07,,,0.25,2.000000,,2013-05-27 12:01:00,
2013-05-27 05:32:00,52.0,52.0,-100.00,South,177,11.0,17.0,100,0.06,,,0.31,2.000000,,2013-05-27 12:32:00,
2013-05-27 05:42:00,52.0,52.0,-100.00,South,177,11.0,17.0,100,0.06,,,0.31,2.000000,,2013-05-27 12:42:00,
2013-05-27 05:52:00,52.0,52.0,-100.00,South,177,11.0,17.0,100,0.06,,,0.31,2.000000,,2013-05-27 12:52:00,
2013-05-27 06:01:00,52.0,52.0,-100.00,South,177,11.0,17.0,100,0.06,,,0.31,2.000000,,2013-05-27 13:01:00,
2013-05-27 06:32:00,53.0,53.0,-100.00,South,177,11.0,21.0,100,0.08,,,0.38,3.000000,,2013-05-27 13:32:00,
2013-05-27 06:42:00,53.0,53.0,-100.00,South,177,11.0,21.0,100,0.08,,,0.38,3.000000,,2013-05-27 13:42:00,
2013-05-27 06:52:00,53.0,53.0,-100.00,South,177,11.0,21.0,100,0.08,,,0.38,3.000000,,2013-05-27 13:52:00,
2013-05-27 07:01:00,53.0,53.0,-100.00,South,177,11.0,21.0,100,0.08,,,0.38,3.000000,,2013-05-27 14:01:00,
2013-05-27 07:32:00,55.0,55.0,-100.00,South,185,16.0,28.0,100,0.12,,,0.50,8.000000,,2013-05-27 14:32:00,
2013-05-27 07:42:00,55.0,55.0,-100.00,South,185,16.0,28.0,100,0.12,,,0.50,8.000000,,2013-05-27 14:42:00,
2013-05-27 07:52:00,55.0,55.0,-100.00,South,185,16.0,28.0,100,0.12,,,0.50,8.000000,,2013-05-27 14:52:00,
2013-05-27 08:01:00,55.0,55.0,-100.00,South,185,16.0,28.0,100,0.12,,,0.50,8.000000,,2013-05-27 15:01:00,
2013-05-27 08:33:00,55.0,55.0,-100.00,South,181,13.0,26.0,100,0.07,,,0.57,22.000000,,2013-05-27 15:33:00,
2013-05-27 08:43:00,55.0,55.0,-100.00,South,181,13.0,26.0,100,0.07,,,0.57,22.000000,,2013-05-27 15:43:00,
2013-05-27 08:53:00,55.0,55.0,-100.00,South,181,13.0,26.0,100,0.07,,,0.57,22.000000,,2013-05-27 15:53:00,
2013-05-27 09:02:00,55.0,55.0,-100.00,South,181,13.0,26.0,100,0.07,,,0.57,22.000000,,2013-05-27 16:02:00,
2013-05-27 09:23:00,54.0,54.0,-100.00,South,184,14.0,26.0,100,0.04,,,0.61,83.000000,,2013-05-27 16:23:00,
2013-05-27 09:33:00,54.0,54.0,-100.00,South,184,14.0,26.0,100,0.04,,,0.61,83.000000,,2013-05-27 16:33:00,
2013-05-27 09:42:00,54.0,54.0,-100.00,South,184,14.0,26.0,100,0.04,,,0.61,83.000000,,2013-05-27 16:42:00,
2013-05-27 09:52:00,54.0,54.0,-100.00,South,184,14.0,26.0,100,0.04,,,0.61,83.000000,,2013-05-27 16:52:00,
2013-05-27 10:02:00,54.0,54.0,-100.00,South,184,14.0,26.0,100,0.04,,,0.61,83.000000,,2013-05-27 17:02:00,
2013-05-27 10:22:00,56.0,56.0,-100.00,South,187,16.0,27.0,100,0.07,,,0.68,103.000000,,2013-05-27 17:22:00,
2013-05-27 10:32:00,56.0,56.0,-100.00,South,187,16.0,27.0,100,0.07,,,0.68,103.000000,,2013-05-27 17:32:00,
2013-05-27 10:43:00,56.0,56.0,-100.00,South,187,16.0,27.0,100,0.07,,,0.68,103.000000,,2013-05-27 17:43:00,
2013-05-27 10:52:00,56.0,56.0,-100.00,South,187,16.0,27.0,100,0.07,,,0.68,103.000000,,2013-05-27 17:52:00,
2013-05-27 11:02:00,56.0,56.0,-100.00,South,187,16.0,27.0,100,0.07,,,0.68,103.000000,,2013-05-27 18:02:00,
2013-05-27 11:32:00,55.0,55.0,-100.00,SSW,197,18.0,30.0,100,0.00,,,0.68,117.000000,,2013-05-27 18:32:00,
2013-05-27 11:42:00,55.0,55.0,-100.00,SSW,197,18.0,30.0,100,0.00,,,0.68,117.000000,,2013-05-27 18:42:00,
2013-05-27 11:52:00,55.0,55.0,-100.00,SSW,197,18.0,30.0,100,0.00,,,0.68,117.000000,,2013-05-27 18:52:00,
2013-05-27 12:01:00,55.0,55.0,-100.00,SSW,197,18.0,30.0,100,0.00,,,0.68,117.000000,,2013-05-27 19:01:00,
2013-05-27 12:32:00,54.0,54.0,-100.00,SSW,197,17.0,38.0,100,0.00,,,0.68,174.000000,,2013-05-27 19:32:00,
2013-05-27 12:42:00,54.0,54.0,-100.00,SSW,197,17.0,38.0,100,0.00,,,0.68,174.000000,,2013-05-27 19:42:00,
2013-05-27 12:52:00,54.0,54.0,-100.00,SSW,197,17.0,38.0,100,0.00,,,0.68,174.000000,,2013-05-27 19:52:00,
2013-05-27 13:01:00,54.0,54.0,-100.00,SSW,197,17.0,38.0,100,0.00,,,0.68,174.000000,,2013-05-27 20:01:00,
2013-05-27 13:22:00,56.0,56.0,-100.00,SSW,197,13.0,29.0,100,0.00,,,0.68,224.000000,,2013-05-27 20:22:00,
2013-05-27 13:32:00,56.0,56.0,-100.00,SSW,197,13.0,29.0,100,0.00,,,0.68,224.000000,,2013-05-27 20:32:00,
2013-05-27 13:42:00,56.0,56.0,-100.00,SSW,197,13.0,29.0,100,0.00,,,0.68,224.000000,,2013-05-27 20:42:00,
2013-05-27 13:52:00,56.0,56.0,-100.00,SSW,197,13.0,29.0,100,0.00,,,0.68,224.000000,,2013-05-27 20:52:00,
2013-05-27 14:01:00,56.0,56.0,-100.00,SSW,197,13.0,29.0,100,0.00,,,0.68,224.000000,,2013-05-27 21:01:00,
2013-05-27 14:33:00,54.0,54.0,-100.00,SSW,198,12.0,30.0,100,0.00,,,0.68,240.000000,,2013-05-27 21:33:00,
2013-05-27 14:43:00,54.0,54.0,-100.00,SSW,198,12.0,30.0,100,0.00,,,0.68,240.000000,,2013-05-27 21:43:00,
2013-05-27 14:53:00,54.0,54.0,-100.00,SSW,198,12.0,30.0,100,0.00,,,0.68,240.000000,,2013-05-27 21:53:00,
2013-05-27 15:02:00,54.0,54.0,-100.00,SSW,198,12.0,30.0,100,0.00,,,0.68,240.000000,,2013-05-27 22:02:00,
2013-05-27 15:33:00,56.0,56.0,-100.00,SSW,196,9.0,25.0,100,0.01,,,0.69,265.000000,,2013-05-27 22:33:00,
2013-05-27 15:42:00,56.0,56.0,-100.00,SSW,196,9.0,25.0,100,0.01,,,0.69,265.000000,,2013-05-27 22:42:00,
2013-05-27 15:53:00,56.0,56.0,-100.00,SSW,196,9.0,25.0,100,0.01,,,0.69,265.000000,,2013-05-27 22:53:00,
2013-05-27 16:02:00,56.0,56.0,-100.00,SSW,196,9.0,25.0,100,0.01,,,0.69,265.000000,,2013-05-27 23:02:00,
2013-05-27 16:32:00,53.0,53.0,-100.00,SSW,206,7.0,18.0,100,0.01,,,0.70,162.000000,,2013-05-27 23:32:00,
2013-05-27 16:42:00,53.0,53.0,-100.00,SSW,206,7.0,18.0,100,0.01,,,0.70,162.000000,,2013-05-27 23:42:00,
2013-05-27 16:52:00,53.0,53.0,-100.00,SSW,206,7.0,18.0,100,0.01,,,0.70,162.000000,,2013-05-27 23:52:00,
2013-05-27 17:01:00,53.0,53.0,-100.00,SSW,206,7.0,18.0,100,0.01,,,0.70,162.000000,,2013-05-28 00:01:00,
2013-05-27 17:32:00,53.0,53.0,-100.00,SSW,195,8.0,17.0,100,0.00,,,0.70,123.000000,,2013-05-28 00:32:00,
2013-05-27 17:42:00,53.0,53.0,-100.00,SSW,195,8.0,17.0,100,0.00,,,0.70,123.000000,,2013-05-28 00:42:00,
2013-05-27 17:52:00,53.0,53.0,-100.00,SSW,195,8.0,17.0,100,0.00,,,0.70,123.000000,,2013-05-28 00:52:00,
2013-05-27 18:01:00,53.0,53.0,-100.00,SSW,195,8.0,17.0,100,0.00,,,0.70,123.000000,,2013-05-28 01:01:00,
2013-05-27 18:32:00,54.0,54.0,-100.00,SSW,199,7.0,14.0,100,0.00,,,0.70,82.000000,,2013-05-28 01:32:00,
2013-05-27 18:42:00,54.0,54.0,-100.00,SSW,199,7.0,14.0,100,0.00,,,0.70,82.000000,,2013-05-28 01:42:00,
2013-05-27 18:52:00,54.0,54.0,-100.00,SSW,199,7.0,14.0,100,0.00,,,0.70,82.000000,,2013-05-28 01:52:00,
2013-05-27 19:02:00,54.0,54.0,-100.00,SSW,199,7.0,14.0,100,0.00,,,0.70,82.000000,,2013-05-28 02:02:00,
2013-05-27 19:22:00,53.0,53.0,-100.00,SSW,193,7.0,13.0,100,0.00,,,0.70,97.000000,,2013-05-28 02:22:00,
2013-05-27 19:32:00,53.0,53.0,-100.00,SSW,193,7.0,13.0,100,0.00,,,0.70,97.000000,,2013-05-28 02:32:00,
2013-05-27 19:42:00,53.0,53.0,-100.00,SSW,193,7.0,13.0,100,0.00,,,0.70,97.000000,,2013-05-28 02:42:00,
2013-05-27 19:52:00,53.0,53.0,-100.00,SSW,193,7.0,13.0,100,0.00,,,0.70,97.000000,,2013-05-28 02:52:00,
2013-05-27 20:01:00,53.0,53.0,-100.00,SSW,193,7.0,13.0,100,0.00,,,0.70,97.000000,,2013-05-28 03:01:00,
2013-05-27 20:33:00,54.0,54.0,-100.00,SSW,192,7.0,14.0,100,0.00,,,0.70,32.000000,,2013-05-28 03:33:00,
2013-05-27 20:43:00,54.0,54.0,-100.00,SSW,192,7.0,14.0,100,0.00,,,0.70,32.000000,,2013-05-28 03:43:00,
2013-05-27 20:53:00,54.0,54.0,-100.00,SSW,192,7.0,14.0,100,0.00,,,0.70,32.000000,,2013-05-28 03:53:00,
2013-05-27 21:02:00,54.0,54.0,-100.00,SSW,192,7.0,14.0,100,0.00,,,0.70,32.000000,,2013-05-28 04:02:00,
2013-05-27 21:33:00,52.0,52.0,-100.00,SSW,193,8.0,15.0,100,0.00,,,0.70,7.000000,,2013-05-28 04:33:00,
2013-05-27 21:43:00,52.0,52.0,-100.00,SSW,193,8.0,15.0,100,0.00,,,0.70,7.000000,,2013-05-28 04:43:00,
2013-05-27 21:52:00,52.0,52.0,-100.00,SSW,193,8.0,15.0,100,0.00,,,0.70,7.000000,,2013-05-28 04:52:00,
2013-05-27 22:02:00,52.0,52.0,-100.00,SSW,193,8.0,15.0,100,0.00,,,0.70,7.000000,,2013-05-28 05:02:00,
2013-05-27 22:33:00,52.0,52.0,-100.00,SSW,198,7.0,14.0,100,0.00,,,0.70,2.000000,,2013-05-28 05:33:00,
2013-05-27 22:42:00,52.0,52.0,-100.00,SSW,198,7.0,14.0,100,0.00,,,0.70,2.000000,,2013-05-28 05:42:00,
2013-05-27 22:52:00,52.0,52.0,-100.00,SSW,198,7.0,14.0,100,0.00,,,0.70,2.000000,,2013-05-28 05:52:00,
2013-05-27 23:02:00,52.0,52.0,-100.00,SSW,198,7.0,14.0,100,0.00,,,0.70,2.000000,,2013-05-28 06:02:00,
2013-05-27 23:22:00,52.0,52.0,-100.00,SSW,195,9.0,16.0,100,0.00,,,0.70,2.000000,,2013-05-28 06:22:00,
2013-05-27 23:32:00,52.0,52.0,-100.00,SSW,195,9.0,16.0,100,0.00,,,0.70,2.000000,,2013-05-28 06:32:00,
2013-05-27 23:42:00,52.0,52.0,-100.00,SSW,195,9.0,16.0,100,0.00,,,0.70,2.000000,,2013-05-28 06:42:00,
2013-05-27 23:52:00,52.0,52.0,-100.00,SSW,195,9.0,16.0,100,0.00,,,0.70,2.000000,,2013-05-28 06:52:00,